createdAt,value
2023-01-13T00:07:32.142Z,82.11
2023-01-13T00:11:40.577Z,82.01
2023-01-13T00:15:55.659Z,81.75
2023-01-13T00:20:12.365Z,81.60
2023-01-13T00:24:43.028Z,81.29
2023-01-13T00:28:49.347Z,81.19
2023-01-13T00:33:08.014Z,81.11
2023-01-13T00:41:40.398Z,81.45
2023-01-13T00:45:58.896Z,81.60
2023-01-13T00:50:17.971Z,81.78
2023-01-13T00:59:02.489Z,81.85
2023-01-13T01:03:32.384Z,82.03
2023-01-13T01:08:01.761Z,81.65
2023-01-13T01:12:18.867Z,81.60
2023-01-13T01:20:53.263Z,81.73
2023-01-13T01:25:11.231Z,81.31
2023-01-13T01:29:41.784Z,81.14
2023-01-13T01:34:10.355Z,80.80
2023-01-13T01:42:54.381Z,80.17
2023-01-13T01:47:24.676Z,80.22
2023-01-13T01:51:41.609Z,80.16
2023-01-13T01:56:11.934Z,79.88
2023-01-13T02:00:30.067Z,79.62
2023-01-13T02:04:59.017Z,79.33
2023-01-13T02:09:16.113Z,79.35
2023-01-13T02:18:02.501Z,79.25
2023-01-13T02:22:55.142Z,79.49
2023-01-13T02:31:39.530Z,80.21
2023-01-13T02:36:20.948Z,79.97
2023-01-13T02:40:32.446Z,80.04
2023-01-13T02:44:59.829Z,80.10
2023-01-13T02:49:16.213Z,80.07
2023-01-13T02:53:34.730Z,79.75
2023-01-13T03:01:59.141Z,80.00
2023-01-13T03:06:07.217Z,79.88
2023-01-13T03:10:40.468Z,79.77
2023-01-13T03:15:05.027Z,79.97
2023-01-13T03:19:41.663Z,80.10
2023-01-13T03:24:03.900Z,80.26
2023-01-13T03:28:24.554Z,80.44
2023-01-13T03:32:32.856Z,80.53
2023-01-13T03:36:49.367Z,80.74
2023-01-13T03:41:26.788Z,80.67
2023-01-13T03:45:45.373Z,80.64
2023-01-13T03:50:04.581Z,80.45
2023-01-13T03:54:14.988Z,80.33
2023-01-13T04:03:07.065Z,80.13
2023-01-13T04:11:40.420Z,80.01
2023-01-13T04:15:56.990Z,80.12
2023-01-13T04:20:02.188Z,79.95
2023-01-13T04:24:07.551Z,79.87
2023-01-13T04:28:13.007Z,79.74
2023-01-13T04:32:18.415Z,79.78
2023-01-13T04:36:23.780Z,79.85
2023-01-13T04:40:31.159Z,79.59
2023-01-13T04:44:36.545Z,79.78
2023-01-13T04:48:41.911Z,79.87
2023-01-13T04:52:47.298Z,79.64
2023-01-13T04:56:54.735Z,79.67
2023-01-13T05:01:00.160Z,79.61
2023-01-13T05:09:18.864Z,79.37
2023-01-13T05:13:31.214Z,79.54
2023-01-13T05:17:38.269Z,79.46
2023-01-13T05:21:50.603Z,79.52
2023-01-13T05:25:55.940Z,79.58
2023-01-13T05:34:19.377Z,79.68
2023-01-13T05:38:24.722Z,79.67
2023-01-13T05:42:36.839Z,79.54
2023-01-13T05:55:18.859Z,79.73
2023-01-13T05:59:37.708Z,79.82
2023-01-13T06:12:18.568Z,80.22
2023-01-13T06:16:45.894Z,80.23
2023-01-13T06:25:06.167Z,80.46
2023-01-13T06:29:12.461Z,80.52
2023-01-13T06:33:16.962Z,80.42
2023-01-13T06:37:33.194Z,80.12
2023-01-13T06:41:44.476Z,80.08
2023-01-13T06:45:45.389Z,79.96
2023-01-13T06:49:35.347Z,79.90
2023-01-13T06:53:27.379Z,79.95
2023-01-13T06:57:29.239Z,79.88
2023-01-13T07:07:16.502Z,79.36
2023-01-13T07:11:23.662Z,79.46
2023-01-13T07:15:31.025Z,79.34
2023-01-13T07:20:01.509Z,79.05
2023-01-13T07:24:07.801Z,78.78
2023-01-13T07:32:39.471Z,78.69
2023-01-13T07:36:54.846Z,78.16
2023-01-13T07:41:11.932Z,78.11
2023-01-13T07:45:28.502Z,77.60
2023-01-13T07:49:49.085Z,77.14
2023-01-13T07:58:19.776Z,77.08
2023-01-13T08:02:37.691Z,76.66
2023-01-13T08:06:53.082Z,76.59
2023-01-13T08:11:10.331Z,76.39
2023-01-13T08:19:58.329Z,76.30
2023-01-13T08:32:53.596Z,75.00
2023-01-13T08:37:20.286Z,74.94
2023-01-13T08:41:59.917Z,74.28
2023-01-13T08:46:18.314Z,74.35
2023-01-13T08:50:46.759Z,73.61
2023-01-13T08:55:14.304Z,73.22
2023-01-13T09:03:56.077Z,72.87
2023-01-13T09:08:10.166Z,72.09
2023-01-13T09:13:53.881Z,71.66
2023-01-13T09:18:25.696Z,71.45
2023-01-13T09:27:14.961Z,71.77
2023-01-13T09:31:46.426Z,71.52
2023-01-13T09:40:32.749Z,71.41
2023-01-13T09:45:07.549Z,71.44
2023-01-13T09:49:59.030Z,70.95
2023-01-13T09:53:28.566Z,70.58
2023-01-13T09:57:08.039Z,70.21
2023-01-13T10:10:36.095Z,68.85
2023-01-13T10:19:24.051Z,68.32
2023-01-13T10:23:29.064Z,68.43
2023-01-13T10:27:38.112Z,67.37
2023-01-13T10:31:46.748Z,67.61
2023-01-13T10:36:05.072Z,68.18
2023-01-13T10:39:49.846Z,68.23
2023-01-13T10:52:17.072Z,68.36
2023-01-13T10:56:03.927Z,68.43
2023-01-13T11:00:10.773Z,68.88
2023-01-13T11:04:18.875Z,68.85
2023-01-13T11:08:29.864Z,68.65
2023-01-13T11:20:50.680Z,68.75
2023-01-13T11:28:29.875Z,68.78
2023-01-13T11:32:56.378Z,69.74
2023-01-13T11:37:08.612Z,69.60
2023-01-13T11:41:20.631Z,69.80
2023-01-13T11:45:19.679Z,69.75
2023-01-13T11:49:06.607Z,70.00
2023-01-13T11:53:31.303Z,70.22
2023-01-13T12:05:45.567Z,70.13
2023-01-13T12:13:34.527Z,70.61
2023-01-13T12:17:36.550Z,70.80
2023-01-13T12:22:00.461Z,71.52
2023-01-13T12:25:47.540Z,71.65
2023-01-13T12:33:29.565Z,71.72
2023-01-13T12:45:53.487Z,72.09
2023-01-13T12:49:40.598Z,72.45
2023-01-13T12:54:02.511Z,72.28
2023-01-13T12:58:02.316Z,72.97
2023-01-13T13:09:41.504Z,73.72
2023-01-13T13:13:41.494Z,73.30
2023-01-13T13:17:52.490Z,73.06
2023-01-13T13:29:42.054Z,73.45
2023-01-13T13:33:25.215Z,73.32
2023-01-13T13:37:21.475Z,73.15
2023-01-13T13:41:27.535Z,73.44
2023-01-13T13:45:21.299Z,73.55
2023-01-13T13:49:30.399Z,73.55
2023-01-13T13:53:47.227Z,73.56
2023-01-13T14:05:42.479Z,73.93
2023-01-13T14:09:37.390Z,73.75
2023-01-13T14:16:59.451Z,73.72
2023-01-13T14:20:57.356Z,74.06
2023-01-13T14:24:57.517Z,74.20
2023-01-13T14:28:55.358Z,73.87
2023-01-13T14:33:06.342Z,74.36
2023-01-13T14:37:04.347Z,74.66
2023-01-13T14:41:12.314Z,74.36
2023-01-13T14:45:09.134Z,74.29
2023-01-13T14:49:18.095Z,73.72
2023-01-13T14:56:54.296Z,73.15
2023-01-13T15:00:41.274Z,72.48
2023-01-13T15:04:40.272Z,72.53
2023-01-13T15:08:45.342Z,72.86
2023-01-13T15:12:41.248Z,73.04
2023-01-13T15:16:32.834Z,73.26
2023-01-13T15:20:22.246Z,73.11
2023-01-13T15:24:09.298Z,73.96
2023-01-13T15:27:56.239Z,74.02
2023-01-13T15:31:56.106Z,74.46
2023-01-13T15:36:30.232Z,74.63
2023-01-13T15:39:45.265Z,75.22
2023-01-13T15:43:50.201Z,75.30
2023-01-13T15:47:49.272Z,75.65
2023-01-13T15:55:30.233Z,76.14
2023-01-13T15:59:52.223Z,76.39
2023-01-13T16:03:15.353Z,76.57
2023-01-13T16:06:24.563Z,76.77
2023-01-13T16:10:19.321Z,76.82
2023-01-13T16:13:58.211Z,77.18
2023-01-13T16:18:21.126Z,77.44
2023-01-13T16:22:22.402Z,77.77
2023-01-13T16:26:52.275Z,77.90
2023-01-13T16:31:08.761Z,78.02
2023-01-13T16:35:12.365Z,78.02
2023-01-13T16:43:19.918Z,78.59
2023-01-13T16:47:34.243Z,78.74
2023-01-13T16:51:17.956Z,78.55
2023-01-13T16:56:02.753Z,78.77
2023-01-13T16:59:28.031Z,78.62
2023-01-13T17:03:30.949Z,78.48
2023-01-13T17:07:57.839Z,78.54
2023-01-13T17:11:44.817Z,78.67
2023-01-13T17:15:53.055Z,78.48
2023-01-13T17:20:12.824Z,78.46
2023-01-13T17:24:29.866Z,78.50
2023-01-13T17:31:37.671Z,78.46
2023-01-13T17:34:48.780Z,78.56
2023-01-13T17:37:53.846Z,78.66
2023-01-13T17:41:04.883Z,78.64
2023-01-13T17:44:31.511Z,78.59
2023-01-13T17:47:41.482Z,78.42
2023-01-13T17:50:50.364Z,78.40
2023-01-13T17:54:15.239Z,78.49
2023-01-13T17:57:38.347Z,78.49
2023-01-13T18:00:46.018Z,78.48
2023-01-13T18:04:21.953Z,78.43
2023-01-13T18:07:29.043Z,78.40
2023-01-13T18:10:34.077Z,78.50
2023-01-13T18:14:17.798Z,78.52
2023-01-13T18:17:21.595Z,78.83
2023-01-13T18:20:42.999Z,79.46
2023-01-13T18:24:04.666Z,80.03
2023-01-13T18:27:24.424Z,80.40
2023-01-13T18:30:27.391Z,80.94
2023-01-13T18:33:30.510Z,81.45
2023-01-13T18:36:33.787Z,81.56
2023-01-13T18:39:37.604Z,81.85
2023-01-13T18:42:56.425Z,82.26
2023-01-13T18:45:59.709Z,82.60
2023-01-13T18:49:02.961Z,82.72
2023-01-13T18:52:06.297Z,83.15
2023-01-13T18:55:10.601Z,83.32
2023-01-13T18:58:13.709Z,83.68
2023-01-13T19:01:16.968Z,83.76
2023-01-13T19:04:20.201Z,83.83
2023-01-13T19:07:27.108Z,84.11
2023-01-13T19:10:32.712Z,83.95
2023-01-13T19:13:36.594Z,84.14
2023-01-13T19:16:39.772Z,84.78
2023-01-13T19:19:49.018Z,84.47
2023-01-13T19:22:54.546Z,85.23
2023-01-13T19:26:02.279Z,85.38
2023-01-13T19:29:05.314Z,84.96
2023-01-13T19:32:08.478Z,84.91
2023-01-13T19:35:13.224Z,85.34
2023-01-13T19:38:16.231Z,85.31
2023-01-13T19:41:38.237Z,85.90
2023-01-13T19:44:59.792Z,85.90
2023-01-13T19:48:05.285Z,86.28
2023-01-13T19:51:08.512Z,86.60
2023-01-13T19:54:11.529Z,86.28
2023-01-13T19:57:15.319Z,87.44
2023-01-13T20:00:21.155Z,87.22
2023-01-13T20:03:27.021Z,86.87
2023-01-13T20:06:31.946Z,86.99
2023-01-13T20:09:35.900Z,86.75
2023-01-13T20:12:39.771Z,86.51
2023-01-13T20:15:44.139Z,86.58
2023-01-13T20:18:51.649Z,86.50
2023-01-13T20:21:54.588Z,86.35
2023-01-13T20:24:57.687Z,86.72
2023-01-13T20:28:02.409Z,86.56
2023-01-13T20:31:07.986Z,86.73
2023-01-13T20:34:11.567Z,86.36
2023-01-13T20:37:14.687Z,86.36
2023-01-13T20:40:18.569Z,86.41
2023-01-13T20:43:21.558Z,86.43
2023-01-13T20:46:24.674Z,86.58
2023-01-13T20:49:28.172Z,86.61
2023-01-13T20:52:58.469Z,86.46
2023-01-13T20:57:14.445Z,86.36
2023-01-13T21:00:51.900Z,86.41
2023-01-13T21:04:48.063Z,86.57
2023-01-13T21:08:59.557Z,86.66
2023-01-13T21:12:47.571Z,86.37
2023-01-13T21:16:25.812Z,86.15
2023-01-13T21:19:42.838Z,85.92
2023-01-13T21:22:48.242Z,86.04
2023-01-13T21:26:12.208Z,86.19
2023-01-13T21:29:23.565Z,86.28
2023-01-13T21:33:35.726Z,85.84
2023-01-13T21:37:54.933Z,85.84
2023-01-13T21:41:28.888Z,85.96
2023-01-13T21:45:33.388Z,85.94
2023-01-13T21:49:01.517Z,85.75
2023-01-13T21:52:09.938Z,85.66
2023-01-13T21:55:30.316Z,85.69
2023-01-13T21:59:00.880Z,85.51
2023-01-13T22:02:36.936Z,85.23
2023-01-13T22:05:56.773Z,85.04
2023-01-13T22:09:28.444Z,85.06
2023-01-13T22:12:36.617Z,84.78
2023-01-13T22:15:56.999Z,84.90
2023-01-13T22:19:17.713Z,84.99
2023-01-13T22:22:49.632Z,84.47
2023-01-13T22:26:14.111Z,84.55
2023-01-13T22:29:19.854Z,84.65
2023-01-13T22:32:39.003Z,84.52
2023-01-13T22:35:58.287Z,84.36
2023-01-13T22:39:03.946Z,84.52
2023-01-13T22:42:09.223Z,84.43
2023-01-13T22:45:22.022Z,84.62
2023-01-13T22:48:58.211Z,84.82
2023-01-13T22:52:14.167Z,85.18
2023-01-13T22:55:54.143Z,84.98
2023-01-13T22:59:11.637Z,85.22
2023-01-13T23:02:15.008Z,85.45
2023-01-13T23:05:35.585Z,86.05
2023-01-13T23:08:50.168Z,86.13
2023-01-13T23:12:05.535Z,85.95
2023-01-13T23:15:47.857Z,86.48
2023-01-13T23:24:34.857Z,86.76
2023-01-13T23:27:46.605Z,86.47
2023-01-13T23:30:58.739Z,86.53
2023-01-13T23:34:26.149Z,86.79
2023-01-13T23:38:07.608Z,86.64
2023-01-13T23:41:36.471Z,86.83
2023-01-13T23:44:41.137Z,86.56
2023-01-13T23:47:50.555Z,86.64
2023-01-13T23:51:04.324Z,86.63
2023-01-13T23:54:10.193Z,86.62
